sensor_id;sensor_type;location;lat;lon;timestamp;P1;durP1;ratioP1;P2;durP2;ratioP2
2390;SDS011;22957;50.824;4.360;2022-10-16T00:01:17;1.70;;;0.90;;
2390;SDS011;22957;50.824;4.360;2022-10-16T00:03:44;1.43;;;0.60;;
2390;SDS011;22957;50.824;4.360;2022-10-16T00:06:11;1.93;;;0.70;;
2390;SDS011;22957;50.824;4.360;2022-10-16T00:08:38;1.00;;;0.70;;
2390;SDS011;22957;50.824;4.360;2022-10-16T00:11:06;1.13;;;0.70;;
2390;SDS011;22957;50.824;4.360;2022-10-16T00:13:35;1.10;;;0.80;;
2390;SDS011;22957;50.824;4.360;2022-10-16T00:16:02;2.33;;;0.95;;
2390;SDS011;22957;50.824;4.360;2022-10-16T00:18:28;3.93;;;0.90;;
2390;SDS011;22957;50.824;4.360;2022-10-16T00:20:54;1.58;;;0.80;;
2390;SDS011;22957;50.824;4.360;2022-10-16T00:23:20;1.33;;;0.80;;
2390;SDS011;22957;50.824;4.360;2022-10-16T00:25:59;2.07;;;0.70;;
2390;SDS011;22957;50.824;4.360;2022-10-16T00:28:27;5.00;;;0.70;;
2390;SDS011;22957;50.824;4.360;2022-10-16T00:30:53;2.40;;;0.60;;
2390;SDS011;22957;50.824;4.360;2022-10-16T00:33:19;1.50;;;0.70;;
2390;SDS011;22957;50.824;4.360;2022-10-16T00:35:45;1.73;;;0.83;;
2390;SDS011;22957;50.824;4.360;2022-10-16T00:38:11;1.73;;;0.80;;
2390;SDS011;22957;50.824;4.360;2022-10-16T00:40:37;2.17;;;0.70;;
2390;SDS011;22957;50.824;4.360;2022-10-16T00:43:02;1.30;;;0.80;;
2390;SDS011;22957;50.824;4.360;2022-10-16T00:45:34;1.30;;;0.70;;
2390;SDS011;22957;50.824;4.360;2022-10-16T00:47:59;2.07;;;0.80;;
2390;SDS011;22957;50.824;4.360;2022-10-16T00:50:30;3.10;;;0.90;;
2390;SDS011;22957;50.824;4.360;2022-10-16T00:52:58;2.47;;;1.10;;
2390;SDS011;22957;50.824;4.360;2022-10-16T00:55:25;1.93;;;0.87;;
2390;SDS011;22957;50.824;4.360;2022-10-16T00:57:53;3.70;;;1.30;;
2390;SDS011;22957;50.824;4.360;2022-10-16T01:00:23;1.25;;;0.90;;
2390;SDS011;22957;50.824;4.360;2022-10-16T01:03:00;1.20;;;0.70;;
2390;SDS011;22957;50.824;4.360;2022-10-16T01:05:33;1.47;;;0.90;;
2390;SDS011;22957;50.824;4.360;2022-10-16T01:11:10;1.77;;;0.77;;
2390;SDS011;22957;50.824;4.360;2022-10-16T01:13:45;4.50;;;0.90;;
2390;SDS011;22957;50.824;4.360;2022-10-16T01:16:34;4.83;;;0.90;;
2390;SDS011;22957;50.824;4.360;2022-10-16T01:19:09;3.80;;;0.80;;
2390;SDS011;22957;50.824;4.360;2022-10-16T01:21:57;1.80;;;0.80;;
2390;SDS011;22957;50.824;4.360;2022-10-16T01:35:04;5.97;;;0.90;;
2390;SDS011;22957;50.824;4.360;2022-10-16T01:37:38;1.10;;;0.80;;
2390;SDS011;22957;50.824;4.360;2022-10-16T01:40:14;1.63;;;1.00;;
2390;SDS011;22957;50.824;4.360;2022-10-16T01:42:44;2.77;;;0.80;;
2390;SDS011;22957;50.824;4.360;2022-10-16T01:45:14;1.63;;;0.83;;
2390;SDS011;22957;50.824;4.360;2022-10-16T01:47:43;1.20;;;0.80;;
2390;SDS011;22957;50.824;4.360;2022-10-16T01:50:09;4.90;;;1.08;;
2390;SDS011;22957;50.824;4.360;2022-10-16T01:52:39;1.67;;;0.90;;
2390;SDS011;22957;50.824;4.360;2022-10-16T01:55:07;2.23;;;0.70;;
2390;SDS011;22957;50.824;4.360;2022-10-16T01:57:36;3.57;;;0.87;;
2390;SDS011;22957;50.824;4.360;2022-10-16T02:00:07;8.20;;;1.00;;
2390;SDS011;22957;50.824;4.360;2022-10-16T02:02:36;1.20;;;0.90;;
2390;SDS011;22957;50.824;4.360;2022-10-16T02:05:16;1.23;;;0.80;;
2390;SDS011;22957;50.824;4.360;2022-10-16T02:07:50;4.68;;;0.90;;
2390;SDS011;22957;50.824;4.360;2022-10-16T02:10:16;3.53;;;0.93;;
2390;SDS011;22957;50.824;4.360;2022-10-16T02:12:45;1.67;;;0.90;;
2390;SDS011;22957;50.824;4.360;2022-10-16T02:15:22;1.33;;;0.80;;
2390;SDS011;22957;50.824;4.360;2022-10-16T02:17:48;2.40;;;0.73;;
2390;SDS011;22957;50.824;4.360;2022-10-16T02:20:14;1.30;;;0.90;;
2390;SDS011;22957;50.824;4.360;2022-10-16T02:22:43;1.00;;;0.83;;
2390;SDS011;22957;50.824;4.360;2022-10-16T02:25:15;2.08;;;1.00;;
2390;SDS011;22957;50.824;4.360;2022-10-16T02:30:20;1.67;;;0.80;;
2390;SDS011;22957;50.824;4.360;2022-10-16T02:32:55;2.63;;;0.93;;
2390;SDS011;22957;50.824;4.360;2022-10-16T02:35:24;1.83;;;0.90;;
2390;SDS011;22957;50.824;4.360;2022-10-16T02:37:52;1.98;;;1.15;;
2390;SDS011;22957;50.824;4.360;2022-10-16T02:40:18;2.30;;;0.93;;
2390;SDS011;22957;50.824;4.360;2022-10-16T02:42:49;3.43;;;1.20;;
2390;SDS011;22957;50.824;4.360;2022-10-16T02:45:15;1.10;;;0.70;;
2390;SDS011;22957;50.824;4.360;2022-10-16T02:47:42;1.70;;;0.93;;
2390;SDS011;22957;50.824;4.360;2022-10-16T02:50:07;2.63;;;1.10;;
2390;SDS011;22957;50.824;4.360;2022-10-16T02:52:33;3.10;;;1.10;;
2390;SDS011;22957;50.824;4.360;2022-10-16T02:54:59;5.23;;;1.00;;
2390;SDS011;22957;50.824;4.360;2022-10-16T02:57:24;1.77;;;0.90;;
2390;SDS011;22957;50.824;4.360;2022-10-16T02:59:50;1.83;;;1.20;;
2390;SDS011;22957;50.824;4.360;2022-10-16T03:02:16;3.37;;;0.80;;
2390;SDS011;22957;50.824;4.360;2022-10-16T03:04:42;1.80;;;1.00;;
2390;SDS011;22957;50.824;4.360;2022-10-16T03:07:07;1.67;;;1.10;;
2390;SDS011;22957;50.824;4.360;2022-10-16T03:09:33;2.03;;;0.80;;
2390;SDS011;22957;50.824;4.360;2022-10-16T03:11:58;3.67;;;0.93;;
2390;SDS011;22957;50.824;4.360;2022-10-16T03:14:24;1.60;;;0.90;;
2390;SDS011;22957;50.824;4.360;2022-10-16T03:16:50;2.03;;;1.03;;
2390;SDS011;22957;50.824;4.360;2022-10-16T03:19:16;1.20;;;0.90;;
2390;SDS011;22957;50.824;4.360;2022-10-16T03:21:42;2.50;;;1.63;;
2390;SDS011;22957;50.824;4.360;2022-10-16T03:24:08;3.47;;;1.03;;
2390;SDS011;22957;50.824;4.360;2022-10-16T03:26:33;1.50;;;1.00;;
2390;SDS011;22957;50.824;4.360;2022-10-16T03:28:59;3.03;;;1.00;;
2390;SDS011;22957;50.824;4.360;2022-10-16T03:31:27;2.40;;;0.90;;
2390;SDS011;22957;50.824;4.360;2022-10-16T03:33:53;5.13;;;1.00;;
2390;SDS011;22957;50.824;4.360;2022-10-16T03:36:18;2.67;;;0.93;;
2390;SDS011;22957;50.824;4.360;2022-10-16T03:38:44;2.90;;;1.10;;
2390;SDS011;22957;50.824;4.360;2022-10-16T03:41:09;2.53;;;0.97;;
2390;SDS011;22957;50.824;4.360;2022-10-16T03:43:35;1.70;;;1.00;;
2390;SDS011;22957;50.824;4.360;2022-10-16T03:46:01;1.70;;;0.90;;
2390;SDS011;22957;50.824;4.360;2022-10-16T03:48:26;1.20;;;0.97;;
2390;SDS011;22957;50.824;4.360;2022-10-16T03:50:52;6.63;;;1.30;;
2390;SDS011;22957;50.824;4.360;2022-10-16T03:53:18;1.33;;;0.90;;
2390;SDS011;22957;50.824;4.360;2022-10-16T03:55:44;1.65;;;0.98;;
2390;SDS011;22957;50.824;4.360;2022-10-16T03:58:10;3.37;;;1.03;;
2390;SDS011;22957;50.824;4.360;2022-10-16T04:00:39;3.80;;;1.20;;
2390;SDS011;22957;50.824;4.360;2022-10-16T04:03:09;1.47;;;1.37;;
2390;SDS011;22957;50.824;4.360;2022-10-16T04:05:34;2.43;;;1.10;;
2390;SDS011;22957;50.824;4.360;2022-10-16T04:08:00;1.80;;;1.07;;
2390;SDS011;22957;50.824;4.360;2022-10-16T04:10:26;2.03;;;0.80;;
2390;SDS011;22957;50.824;4.360;2022-10-16T04:12:52;1.83;;;1.07;;
2390;SDS011;22957;50.824;4.360;2022-10-16T04:15:20;2.03;;;1.00;;
2390;SDS011;22957;50.824;4.360;2022-10-16T04:17:47;3.40;;;1.00;;
2390;SDS011;22957;50.824;4.360;2022-10-16T04:20:13;1.57;;;1.30;;
2390;SDS011;22957;50.824;4.360;2022-10-16T04:22:39;1.67;;;1.10;;
2390;SDS011;22957;50.824;4.360;2022-10-16T04:25:04;1.90;;;1.03;;
2390;SDS011;22957;50.824;4.360;2022-10-16T04:27:30;1.23;;;0.93;;
2390;SDS011;22957;50.824;4.360;2022-10-16T04:29:57;2.07;;;1.10;;
2390;SDS011;22957;50.824;4.360;2022-10-16T04:32:24;5.27;;;1.17;;
2390;SDS011;22957;50.824;4.360;2022-10-16T04:34:50;4.53;;;0.90;;
2390;SDS011;22957;50.824;4.360;2022-10-16T04:37:16;1.83;;;1.00;;
2390;SDS011;22957;50.824;4.360;2022-10-16T04:39:42;2.57;;;0.90;;
2390;SDS011;22957;50.824;4.360;2022-10-16T04:42:08;2.50;;;1.00;;
2390;SDS011;22957;50.824;4.360;2022-10-16T04:44:34;1.70;;;1.10;;
2390;SDS011;22957;50.824;4.360;2022-10-16T04:47:00;7.00;;;1.50;;
2390;SDS011;22957;50.824;4.360;2022-10-16T04:49:26;3.10;;;1.10;;
2390;SDS011;22957;50.824;4.360;2022-10-16T04:51:52;7.60;;;1.00;;
2390;SDS011;22957;50.824;4.360;2022-10-16T04:54:17;1.47;;;0.97;;
2390;SDS011;22957;50.824;4.360;2022-10-16T04:56:43;4.80;;;1.13;;
2390;SDS011;22957;50.824;4.360;2022-10-16T04:59:13;1.90;;;1.08;;
2390;SDS011;22957;50.824;4.360;2022-10-16T05:01:39;1.60;;;0.90;;
2390;SDS011;22957;50.824;4.360;2022-10-16T05:04:05;3.53;;;1.30;;
2390;SDS011;22957;50.824;4.360;2022-10-16T05:06:31;2.37;;;1.00;;
2390;SDS011;22957;50.824;4.360;2022-10-16T05:08:56;3.10;;;1.17;;
2390;SDS011;22957;50.824;4.360;2022-10-16T05:11:22;2.70;;;1.00;;
2390;SDS011;22957;50.824;4.360;2022-10-16T05:13:48;3.67;;;1.40;;
2390;SDS011;22957;50.824;4.360;2022-10-16T05:16:14;14.43;;;1.63;;
2390;SDS011;22957;50.824;4.360;2022-10-16T05:18:40;2.70;;;1.10;;
2390;SDS011;22957;50.824;4.360;2022-10-16T05:21:05;3.63;;;1.27;;
2390;SDS011;22957;50.824;4.360;2022-10-16T05:23:31;2.53;;;1.20;;
2390;SDS011;22957;50.824;4.360;2022-10-16T05:28:34;2.63;;;1.70;;
2390;SDS011;22957;50.824;4.360;2022-10-16T05:31:03;3.33;;;1.10;;
2390;SDS011;22957;50.824;4.360;2022-10-16T05:33:31;1.77;;;1.13;;
2390;SDS011;22957;50.824;4.360;2022-10-16T05:36:00;3.70;;;1.07;;
2390;SDS011;22957;50.824;4.360;2022-10-16T05:38:31;3.60;;;1.37;;
2390;SDS011;22957;50.824;4.360;2022-10-16T05:40:56;2.27;;;1.10;;
2390;SDS011;22957;50.824;4.360;2022-10-16T05:43:23;7.85;;;1.75;;
2390;SDS011;22957;50.824;4.360;2022-10-16T05:45:58;3.40;;;1.20;;
2390;SDS011;22957;50.824;4.360;2022-10-16T05:48:28;3.73;;;1.40;;
2390;SDS011;22957;50.824;4.360;2022-10-16T05:51:01;2.37;;;1.30;;
2390;SDS011;22957;50.824;4.360;2022-10-16T05:53:29;2.17;;;1.20;;
2390;SDS011;22957;50.824;4.360;2022-10-16T05:55:57;1.73;;;1.30;;
2390;SDS011;22957;50.824;4.360;2022-10-16T05:58:23;2.80;;;1.30;;
2390;SDS011;22957;50.824;4.360;2022-10-16T06:03:25;2.30;;;1.37;;
2390;SDS011;22957;50.824;4.360;2022-10-16T06:05:53;3.00;;;1.27;;
2390;SDS011;22957;50.824;4.360;2022-10-16T06:08:20;5.13;;;1.50;;
2390;SDS011;22957;50.824;4.360;2022-10-16T06:10:47;2.30;;;1.10;;
2390;SDS011;22957;50.824;4.360;2022-10-16T06:13:15;1.97;;;1.20;;
2390;SDS011;22957;50.824;4.360;2022-10-16T06:15:42;1.77;;;1.40;;
2390;SDS011;22957;50.824;4.360;2022-10-16T06:18:09;5.33;;;1.37;;
2390;SDS011;22957;50.824;4.360;2022-10-16T06:20:36;6.05;;;1.50;;
2390;SDS011;22957;50.824;4.360;2022-10-16T06:23:05;4.07;;;1.23;;
2390;SDS011;22957;50.824;4.360;2022-10-16T06:25:32;1.70;;;1.10;;
2390;SDS011;22957;50.824;4.360;2022-10-16T06:27:58;4.93;;;1.27;;
2390;SDS011;22957;50.824;4.360;2022-10-16T06:30:24;3.53;;;1.60;;
2390;SDS011;22957;50.824;4.360;2022-10-16T06:32:53;2.28;;;1.25;;
2390;SDS011;22957;50.824;4.360;2022-10-16T06:35:19;3.43;;;1.50;;
2390;SDS011;22957;50.824;4.360;2022-10-16T06:37:45;2.27;;;1.20;;
2390;SDS011;22957;50.824;4.360;2022-10-16T06:40:13;2.03;;;1.30;;
2390;SDS011;22957;50.824;4.360;2022-10-16T06:42:39;5.17;;;1.37;;
2390;SDS011;22957;50.824;4.360;2022-10-16T06:45:08;3.73;;;1.30;;
2390;SDS011;22957;50.824;4.360;2022-10-16T06:47:37;6.10;;;1.20;;
2390;SDS011;22957;50.824;4.360;2022-10-16T06:50:04;2.23;;;1.20;;
2390;SDS011;22957;50.824;4.360;2022-10-16T06:52:34;6.90;;;1.77;;
2390;SDS011;22957;50.824;4.360;2022-10-16T06:55:05;3.60;;;1.10;;
2390;SDS011;22957;50.824;4.360;2022-10-16T06:57:32;4.67;;;1.20;;
2390;SDS011;22957;50.824;4.360;2022-10-16T06:59:59;2.70;;;1.00;;
2390;SDS011;22957;50.824;4.360;2022-10-16T07:02:26;6.30;;;1.33;;
2390;SDS011;22957;50.824;4.360;2022-10-16T07:04:53;2.25;;;1.15;;
2390;SDS011;22957;50.824;4.360;2022-10-16T07:07:25;2.90;;;1.20;;
2390;SDS011;22957;50.824;4.360;2022-10-16T07:09:51;3.67;;;1.17;;
2390;SDS011;22957;50.824;4.360;2022-10-16T07:12:19;1.87;;;1.10;;
2390;SDS011;22957;50.824;4.360;2022-10-16T07:14:46;2.67;;;1.03;;
2390;SDS011;22957;50.824;4.360;2022-10-16T07:17:15;3.23;;;1.23;;
2390;SDS011;22957;50.824;4.360;2022-10-16T07:19:43;3.40;;;1.20;;
2390;SDS011;22957;50.824;4.360;2022-10-16T07:22:16;2.20;;;1.13;;
2390;SDS011;22957;50.824;4.360;2022-10-16T07:24:43;5.33;;;1.30;;
2390;SDS011;22957;50.824;4.360;2022-10-16T07:27:22;2.27;;;1.30;;
2390;SDS011;22957;50.824;4.360;2022-10-16T07:30:12;2.27;;;1.07;;
2390;SDS011;22957;50.824;4.360;2022-10-16T07:32:44;2.70;;;1.40;;
2390;SDS011;22957;50.824;4.360;2022-10-16T07:35:11;5.00;;;1.57;;
2390;SDS011;22957;50.824;4.360;2022-10-16T07:37:37;3.30;;;1.10;;
2390;SDS011;22957;50.824;4.360;2022-10-16T07:40:05;2.80;;;1.33;;
2390;SDS011;22957;50.824;4.360;2022-10-16T07:42:36;2.37;;;1.40;;
2390;SDS011;22957;50.824;4.360;2022-10-16T07:45:02;1.73;;;1.27;;
2390;SDS011;22957;50.824;4.360;2022-10-16T07:47:29;3.00;;;1.30;;
2390;SDS011;22957;50.824;4.360;2022-10-16T07:49:55;3.63;;;1.20;;
2390;SDS011;22957;50.824;4.360;2022-10-16T07:52:21;5.47;;;1.40;;
2390;SDS011;22957;50.824;4.360;2022-10-16T07:54:50;2.20;;;1.20;;
2390;SDS011;22957;50.824;4.360;2022-10-16T07:57:17;2.43;;;1.30;;
2390;SDS011;22957;50.824;4.360;2022-10-16T07:59:45;2.10;;;1.10;;
2390;SDS011;22957;50.824;4.360;2022-10-16T08:02:12;2.63;;;1.30;;
2390;SDS011;22957;50.824;4.360;2022-10-16T08:04:38;4.30;;;1.20;;
2390;SDS011;22957;50.824;4.360;2022-10-16T08:07:17;4.63;;;1.40;;
2390;SDS011;22957;50.824;4.360;2022-10-16T08:09:44;4.50;;;1.20;;
2390;SDS011;22957;50.824;4.360;2022-10-16T08:12:17;3.15;;;0.90;;
2390;SDS011;22957;50.824;4.360;2022-10-16T08:14:55;2.10;;;1.13;;
2390;SDS011;22957;50.824;4.360;2022-10-16T08:17:23;10.00;;;1.30;;
2390;SDS011;22957;50.824;4.360;2022-10-16T08:19:52;4.50;;;1.20;;
2390;SDS011;22957;50.824;4.360;2022-10-16T08:22:21;2.23;;;1.10;;
2390;SDS011;22957;50.824;4.360;2022-10-16T08:24:47;3.70;;;1.10;;
2390;SDS011;22957;50.824;4.360;2022-10-16T08:27:14;2.13;;;1.05;;
2390;SDS011;22957;50.824;4.360;2022-10-16T08:29:42;2.70;;;1.00;;
2390;SDS011;22957;50.824;4.360;2022-10-16T08:32:16;3.43;;;1.10;;
2390;SDS011;22957;50.824;4.360;2022-10-16T08:34:42;5.90;;;1.00;;
2390;SDS011;22957;50.824;4.360;2022-10-16T08:37:10;2.53;;;1.10;;
2390;SDS011;22957;50.824;4.360;2022-10-16T08:39:38;2.03;;;1.00;;
2390;SDS011;22957;50.824;4.360;2022-10-16T08:45:42;4.70;;;1.20;;
2390;SDS011;22957;50.824;4.360;2022-10-16T08:48:21;3.37;;;1.13;;
2390;SDS011;22957;50.824;4.360;2022-10-16T08:51:11;7.23;;;0.90;;
2390;SDS011;22957;50.824;4.360;2022-10-16T08:53:54;7.83;;;1.13;;
2390;SDS011;22957;50.824;4.360;2022-10-16T08:56:23;3.10;;;0.93;;
2390;SDS011;22957;50.824;4.360;2022-10-16T08:58:51;4.33;;;1.20;;
2390;SDS011;22957;50.824;4.360;2022-10-16T09:01:19;4.03;;;0.90;;
2390;SDS011;22957;50.824;4.360;2022-10-16T09:04:31;3.63;;;1.07;;
2390;SDS011;22957;50.824;4.360;2022-10-16T09:06:46;4.93;;;1.13;;
2390;SDS011;22957;50.824;4.360;2022-10-16T09:09:38;3.80;;;0.90;;
2390;SDS011;22957;50.824;4.360;2022-10-16T09:12:15;3.57;;;0.90;;
2390;SDS011;22957;50.824;4.360;2022-10-16T09:23:52;2.80;;;1.00;;
2390;SDS011;22957;50.824;4.360;2022-10-16T09:26:34;2.67;;;1.10;;
2390;SDS011;22957;50.824;4.360;2022-10-16T09:29:15;3.47;;;0.88;;
2390;SDS011;22957;50.824;4.360;2022-10-16T09:34:27;3.00;;;1.05;;
2390;SDS011;22957;50.824;4.360;2022-10-16T09:37:03;2.00;;;0.83;;
2390;SDS011;22957;50.824;4.360;2022-10-16T09:39:43;1.67;;;0.80;;
2390;SDS011;22957;50.824;4.360;2022-10-16T09:42:17;2.67;;;1.10;;
2390;SDS011;22957;50.824;4.360;2022-10-16T09:44:52;2.53;;;0.90;;
2390;SDS011;22957;50.824;4.360;2022-10-16T09:47:25;4.10;;;1.13;;
2390;SDS011;22957;50.824;4.360;2022-10-16T09:52:20;4.32;;;1.10;;
2390;SDS011;22957;50.824;4.360;2022-10-16T09:54:51;5.70;;;1.10;;
2390;SDS011;22957;50.824;4.360;2022-10-16T09:57:19;3.30;;;0.93;;
2390;SDS011;22957;50.824;4.360;2022-10-16T09:59:53;3.53;;;0.90;;
2390;SDS011;22957;50.824;4.360;2022-10-16T10:02:27;6.20;;;0.90;;
2390;SDS011;22957;50.824;4.360;2022-10-16T10:05:04;3.73;;;1.10;;
2390;SDS011;22957;50.824;4.360;2022-10-16T10:07:39;4.57;;;1.00;;
2390;SDS011;22957;50.824;4.360;2022-10-16T10:13:17;2.40;;;0.90;;
2390;SDS011;22957;50.824;4.360;2022-10-16T10:15:48;3.37;;;0.97;;
2390;SDS011;22957;50.824;4.360;2022-10-16T10:18:19;3.83;;;1.00;;
2390;SDS011;22957;50.824;4.360;2022-10-16T10:21:12;3.43;;;1.00;;
2390;SDS011;22957;50.824;4.360;2022-10-16T10:23:39;2.80;;;1.00;;
2390;SDS011;22957;50.824;4.360;2022-10-16T10:26:07;1.97;;;0.80;;
2390;SDS011;22957;50.824;4.360;2022-10-16T10:28:48;2.83;;;1.00;;
2390;SDS011;22957;50.824;4.360;2022-10-16T10:31:36;5.70;;;2.20;;
2390;SDS011;22957;50.824;4.360;2022-10-16T10:36:56;5.70;;;1.27;;
2390;SDS011;22957;50.824;4.360;2022-10-16T10:50:36;4.10;;;1.20;;
2390;SDS011;22957;50.824;4.360;2022-10-16T11:07:34;3.47;;;0.90;;
2390;SDS011;22957;50.824;4.360;2022-10-16T11:10:13;3.83;;;0.97;;
2390;SDS011;22957;50.824;4.360;2022-10-16T11:12:44;3.60;;;0.90;;
2390;SDS011;22957;50.824;4.360;2022-10-16T11:15:22;3.30;;;1.10;;
2390;SDS011;22957;50.824;4.360;2022-10-16T11:17:57;4.80;;;1.03;;
2390;SDS011;22957;50.824;4.360;2022-10-16T11:20:41;4.13;;;0.80;;
2390;SDS011;22957;50.824;4.360;2022-10-16T11:26:18;2.20;;;0.80;;
2390;SDS011;22957;50.824;4.360;2022-10-16T11:28:50;2.83;;;0.90;;
2390;SDS011;22957;50.824;4.360;2022-10-16T11:31:29;2.13;;;0.90;;
2390;SDS011;22957;50.824;4.360;2022-10-16T11:34:01;2.10;;;1.00;;
2390;SDS011;22957;50.824;4.360;2022-10-16T11:36:44;2.97;;;1.10;;
2390;SDS011;22957;50.824;4.360;2022-10-16T11:39:30;2.95;;;0.98;;
2390;SDS011;22957;50.824;4.360;2022-10-16T11:42:14;3.40;;;0.80;;
2390;SDS011;22957;50.824;4.360;2022-10-16T11:52:55;2.60;;;1.00;;
2390;SDS011;22957;50.824;4.360;2022-10-16T11:55:42;6.50;;;0.83;;
2390;SDS011;22957;50.824;4.360;2022-10-16T12:06:40;3.38;;;0.90;;
2390;SDS011;22957;50.824;4.360;2022-10-16T12:09:10;1.50;;;0.80;;
2390;SDS011;22957;50.824;4.360;2022-10-16T12:11:43;2.37;;;1.23;;
2390;SDS011;22957;50.824;4.360;2022-10-16T12:19:17;7.20;;;0.90;;
2390;SDS011;22957;50.824;4.360;2022-10-16T12:21:44;3.33;;;0.80;;
2390;SDS011;22957;50.824;4.360;2022-10-16T12:26:55;2.03;;;0.80;;
2390;SDS011;22957;50.824;4.360;2022-10-16T12:32:01;1.40;;;0.80;;
2390;SDS011;22957;50.824;4.360;2022-10-16T12:39:40;3.67;;;0.80;;
2390;SDS011;22957;50.824;4.360;2022-10-16T12:44:52;1.70;;;0.80;;
2390;SDS011;22957;50.824;4.360;2022-10-16T12:49:57;2.20;;;0.80;;
2390;SDS011;22957;50.824;4.360;2022-10-16T12:54:59;2.03;;;0.63;;
2390;SDS011;22957;50.824;4.360;2022-10-16T13:12:07;5.97;;;0.70;;
2390;SDS011;22957;50.824;4.360;2022-10-16T13:21:16;2.03;;;0.77;;
2390;SDS011;22957;50.824;4.360;2022-10-16T13:23:54;2.13;;;0.80;;
2390;SDS011;22957;50.824;4.360;2022-10-16T13:27:09;2.20;;;0.80;;
2390;SDS011;22957;50.824;4.360;2022-10-16T13:30:10;4.07;;;0.70;;
2390;SDS011;22957;50.824;4.360;2022-10-16T13:32:47;7.37;;;1.03;;
2390;SDS011;22957;50.824;4.360;2022-10-16T13:38:34;1.97;;;0.80;;
2390;SDS011;22957;50.824;4.360;2022-10-16T13:40:55;2.50;;;1.27;;
2390;SDS011;22957;50.824;4.360;2022-10-16T13:43:38;2.03;;;0.90;;
2390;SDS011;22957;50.824;4.360;2022-10-16T13:46:14;2.10;;;0.90;;
2390;SDS011;22957;50.824;4.360;2022-10-16T13:49:05;2.43;;;0.90;;
2390;SDS011;22957;50.824;4.360;2022-10-16T13:51:53;1.50;;;0.93;;
2390;SDS011;22957;50.824;4.360;2022-10-16T13:54:23;1.63;;;0.90;;
2390;SDS011;22957;50.824;4.360;2022-10-16T13:56:50;3.95;;;0.90;;
2390;SDS011;22957;50.824;4.360;2022-10-16T13:59:23;3.00;;;0.80;;
2390;SDS011;22957;50.824;4.360;2022-10-16T14:01:52;1.77;;;0.60;;
2390;SDS011;22957;50.824;4.360;2022-10-16T14:04:21;2.60;;;0.90;;
2390;SDS011;22957;50.824;4.360;2022-10-16T14:06:48;7.90;;;0.90;;
2390;SDS011;22957;50.824;4.360;2022-10-16T14:09:25;4.30;;;1.00;;
2390;SDS011;22957;50.824;4.360;2022-10-16T14:11:55;3.10;;;0.90;;
2390;SDS011;22957;50.824;4.360;2022-10-16T14:14:27;2.07;;;0.67;;
2390;SDS011;22957;50.824;4.360;2022-10-16T14:17:22;1.57;;;0.80;;
2390;SDS011;22957;50.824;4.360;2022-10-16T14:19:53;1.30;;;0.77;;
2390;SDS011;22957;50.824;4.360;2022-10-16T14:22:39;3.43;;;0.87;;
2390;SDS011;22957;50.824;4.360;2022-10-16T14:27:55;2.60;;;0.80;;
2390;SDS011;22957;50.824;4.360;2022-10-16T14:30:25;2.97;;;0.90;;
2390;SDS011;22957;50.824;4.360;2022-10-16T14:32:56;4.37;;;0.90;;
2390;SDS011;22957;50.824;4.360;2022-10-16T14:35:29;3.35;;;0.70;;
2390;SDS011;22957;50.824;4.360;2022-10-16T14:38:00;4.20;;;1.03;;
2390;SDS011;22957;50.824;4.360;2022-10-16T14:40:31;2.90;;;0.80;;
2390;SDS011;22957;50.824;4.360;2022-10-16T14:43:02;4.33;;;0.80;;
2390;SDS011;22957;50.824;4.360;2022-10-16T14:45:30;4.23;;;1.10;;
2390;SDS011;22957;50.824;4.360;2022-10-16T14:48:05;2.80;;;0.80;;
2390;SDS011;22957;50.824;4.360;2022-10-16T14:50:39;2.47;;;0.90;;
2390;SDS011;22957;50.824;4.360;2022-10-16T14:53:11;3.63;;;0.93;;
2390;SDS011;22957;50.824;4.360;2022-10-16T14:55:38;4.97;;;1.30;;
2390;SDS011;22957;50.824;4.360;2022-10-16T14:58:05;2.03;;;0.80;;
2390;SDS011;22957;50.824;4.360;2022-10-16T15:00:31;2.07;;;1.00;;
2390;SDS011;22957;50.824;4.360;2022-10-16T15:02:57;2.10;;;0.80;;
2390;SDS011;22957;50.824;4.360;2022-10-16T15:05:23;3.87;;;1.20;;
2390;SDS011;22957;50.824;4.360;2022-10-16T15:07:51;2.80;;;0.83;;
2390;SDS011;22957;50.824;4.360;2022-10-16T15:10:21;3.10;;;0.90;;
2390;SDS011;22957;50.824;4.360;2022-10-16T15:12:48;2.40;;;0.93;;
2390;SDS011;22957;50.824;4.360;2022-10-16T15:17:50;3.57;;;1.20;;
2390;SDS011;22957;50.824;4.360;2022-10-16T15:20:19;2.23;;;1.00;;
2390;SDS011;22957;50.824;4.360;2022-10-16T15:22:45;4.77;;;0.83;;
2390;SDS011;22957;50.824;4.360;2022-10-16T15:25:34;2.08;;;0.90;;
2390;SDS011;22957;50.824;4.360;2022-10-16T15:27:57;3.67;;;1.00;;
2390;SDS011;22957;50.824;4.360;2022-10-16T15:30:24;3.00;;;0.90;;
2390;SDS011;22957;50.824;4.360;2022-10-16T15:32:50;4.07;;;1.30;;
2390;SDS011;22957;50.824;4.360;2022-10-16T15:35:16;4.90;;;1.20;;
2390;SDS011;22957;50.824;4.360;2022-10-16T15:37:42;2.63;;;1.10;;
2390;SDS011;22957;50.824;4.360;2022-10-16T15:40:08;4.50;;;1.23;;
2390;SDS011;22957;50.824;4.360;2022-10-16T15:42:36;4.40;;;1.07;;
2390;SDS011;22957;50.824;4.360;2022-10-16T15:45:01;2.93;;;1.30;;
2390;SDS011;22957;50.824;4.360;2022-10-16T15:47:29;3.00;;;1.17;;
2390;SDS011;22957;50.824;4.360;2022-10-16T15:49:54;3.60;;;1.50;;
2390;SDS011;22957;50.824;4.360;2022-10-16T15:52:21;4.07;;;1.40;;
2390;SDS011;22957;50.824;4.360;2022-10-16T15:54:48;5.60;;;1.83;;
2390;SDS011;22957;50.824;4.360;2022-10-16T15:57:14;4.07;;;1.57;;
2390;SDS011;22957;50.824;4.360;2022-10-16T15:59:39;4.87;;;1.33;;
2390;SDS011;22957;50.824;4.360;2022-10-16T16:02:05;7.00;;;1.80;;
2390;SDS011;22957;50.824;4.360;2022-10-16T16:04:31;6.07;;;1.48;;
2390;SDS011;22957;50.824;4.360;2022-10-16T16:06:57;2.43;;;1.20;;
2390;SDS011;22957;50.824;4.360;2022-10-16T16:09:23;5.50;;;1.42;;
2390;SDS011;22957;50.824;4.360;2022-10-16T16:11:49;6.10;;;1.40;;
2390;SDS011;22957;50.824;4.360;2022-10-16T16:14:17;8.57;;;1.50;;
2390;SDS011;22957;50.824;4.360;2022-10-16T16:16:43;3.70;;;1.47;;
2390;SDS011;22957;50.824;4.360;2022-10-16T16:19:34;3.40;;;1.40;;
2390;SDS011;22957;50.824;4.360;2022-10-16T16:22:01;4.10;;;1.33;;
2390;SDS011;22957;50.824;4.360;2022-10-16T16:24:35;5.00;;;1.50;;
2390;SDS011;22957;50.824;4.360;2022-10-16T16:27:10;5.43;;;1.50;;
2390;SDS011;22957;50.824;4.360;2022-10-16T16:29:45;3.40;;;1.60;;
2390;SDS011;22957;50.824;4.360;2022-10-16T16:32:14;3.57;;;1.50;;
2390;SDS011;22957;50.824;4.360;2022-10-16T16:34:44;4.03;;;1.50;;
2390;SDS011;22957;50.824;4.360;2022-10-16T16:37:19;3.20;;;1.60;;
2390;SDS011;22957;50.824;4.360;2022-10-16T16:39:45;3.63;;;1.70;;
2390;SDS011;22957;50.824;4.360;2022-10-16T16:42:11;2.73;;;1.63;;
2390;SDS011;22957;50.824;4.360;2022-10-16T16:44:37;5.00;;;1.80;;
2390;SDS011;22957;50.824;4.360;2022-10-16T16:47:04;4.60;;;1.90;;
2390;SDS011;22957;50.824;4.360;2022-10-16T16:49:32;4.80;;;2.30;;
2390;SDS011;22957;50.824;4.360;2022-10-16T16:51:59;5.88;;;1.58;;
2390;SDS011;22957;50.824;4.360;2022-10-16T16:54:25;3.27;;;1.70;;
2390;SDS011;22957;50.824;4.360;2022-10-16T16:56:52;4.50;;;1.90;;
2390;SDS011;22957;50.824;4.360;2022-10-16T17:56:18;8.13;;;5.00;;
2390;SDS011;22957;50.824;4.360;2022-10-16T17:59:10;7.57;;;4.90;;
2390;SDS011;22957;50.824;4.360;2022-10-16T18:01:42;5.67;;;4.60;;
2390;SDS011;22957;50.824;4.360;2022-10-16T18:04:48;8.10;;;4.23;;
2390;SDS011;22957;50.824;4.360;2022-10-16T18:07:35;3.97;;;3.30;;
2390;SDS011;22957;50.824;4.360;2022-10-16T18:10:05;3.23;;;1.90;;
2390;SDS011;22957;50.824;4.360;2022-10-16T18:12:33;6.37;;;3.90;;
2390;SDS011;22957;50.824;4.360;2022-10-16T18:14:59;4.83;;;3.27;;
2390;SDS011;22957;50.824;4.360;2022-10-16T18:17:26;4.30;;;3.40;;
2390;SDS011;22957;50.824;4.360;2022-10-16T18:19:53;6.93;;;4.18;;
2390;SDS011;22957;50.824;4.360;2022-10-16T18:22:19;5.80;;;3.43;;
2390;SDS011;22957;50.824;4.360;2022-10-16T18:24:46;7.77;;;3.47;;
2390;SDS011;22957;50.824;4.360;2022-10-16T18:27:12;6.60;;;3.43;;
2390;SDS011;22957;50.824;4.360;2022-10-16T18:29:39;6.43;;;3.38;;
2390;SDS011;22957;50.824;4.360;2022-10-16T18:32:22;4.37;;;3.50;;
2390;SDS011;22957;50.824;4.360;2022-10-16T19:42:08;4.60;;;3.93;;
2390;SDS011;22957;50.824;4.360;2022-10-16T19:45:00;5.60;;;3.80;;
2390;SDS011;22957;50.824;4.360;2022-10-16T19:47:51;8.93;;;5.67;;